Impacts TAF Board
For situational awareness. Not to be used for flight planning purposes.
IDs:

KBOS - Boston/Logan Intl, MA, US

Issued at 0901 UTC 17 Feb 2019
Updated at 1032 UTC 17 Feb 2019
Potential Impact None Slight Moderate High
Time<<18/11Z 18/12Z 18/13Z 18/14Z 18/15Z 18/16Z 18/17Z 18/18Z 18/19Z 18/20Z 18/21Z 18/22Z 18/23Z
Type PRVL
VIS 1
CIG 15
Cover OVC
FltCat IFR
WX -SN
WDir 100
WSpd 4
WGst --
Raw TAF
KBOS 170901Z 1709/1812 33012KT P6SM SKC
  FM171700 04007KT P6SM SCT250
  FM172100 12006KT P6SM BKN120
  FM180600 16004KT 3SM -SN OVC045
  FM180800 10004KT 1SM -SN OVC015


METAR Board
Radar Display
Forecast Discussion
For situational awareness. Not to be used for flight planning purposes.